This is the latest recevied weather packets stored in our database for station/object CA2JAT-13. If no packets are shown the sender has not sent any weather packets the latest 10 day(s).
| Time | Temp. | Humidity | Pressure | Rain* | Wind** | Luminosity | Snow |
|---|---|---|---|---|---|---|---|
| 1788082775 | 5.56° C | 99% | 1020 hPa | 0 mm | - | 0 W/m² | - |
| 1788080973 | 5.56° C | 99% | 1019.7 hPa | 0 mm | - | 0 W/m² | - |
| 1788079170 | 5.56° C | 99% | 1019.5 hPa | 0 mm | - | 0 W/m² | - |
| 1788077368 | 6.11° C | 99% | 1019.5 hPa | 0 mm | - | 0 W/m² | - |
| 1788075566 | 6.11° C | 99% | 1019.6 hPa | 0 mm | - | 0 W/m² | - |
| 1788073763 | 5.56° C | 99% | 1019.6 hPa | 0 mm | - | 0 W/m² | - |
| 1788071961 | 6.67° C | 99% | 1019.2 hPa | 0 mm | - | 0 W/m² | - |
| 1788070159 | 6.67° C | 99% | 1019.1 hPa | 0 mm | - | 0 W/m² | - |
| 1788068355 | 7.22° C | 99% | 1019.1 hPa | 0 mm | - | 0 W/m² | - |
| 1788066553 | 7.22° C | 99% | 1019.5 hPa | 0 mm | - | 0 W/m² | - |
| 1788064751 | 7.78° C | 97% | 1019.3 hPa | 0 mm | - | 0 W/m² | - |
| 1788062948 | 8.33° C | 96% | 1019.1 hPa | 0 mm | - | 0 W/m² | - |
| 1788059344 | 8.89° C | 93% | 1018.8 hPa | 0 mm | - | 0 W/m² | - |
| 1788039516 | 17.22° C | 56% | 1014.6 hPa | 0 mm | - | 96 W/m² | - |
| 1788032306 | 20° C | 40% | 1014.4 hPa | 0 mm | - | 536 W/m² | - |
| 1788025097 | 17.78° C | 47% | 1017.2 hPa | 0 mm | - | 384 W/m² | - |
| 1788023295 | 16.11° C | 54% | 1018.4 hPa | 0 mm | - | 515 W/m² | - |
| 1788019690 | 15° C | 60% | 1019.3 hPa | 0 mm | - | 377 W/m² | - |
| 1788017886 | 13.89° C | 63% | 1019.6 hPa | 0 mm | - | 362 W/m² | - |
| 1788008874 | 10.56° C | 83% | 1019.8 hPa | 0 mm | - | 90 W/m² | - |
| 1788007071 | 10.56° C | 88% | 1019.7 hPa | 0 mm | - | 72 W/m² | - |
| 1788005269 | 9.44° C | 91% | 1019.6 hPa | 0 mm | - | 24 W/m² | - |
| 1788003467 | 8.89° C | 96% | 1019.3 hPa | 0 mm | - | 0 W/m² | - |
| 1788001664 | 8.89° C | 96% | 1019.2 hPa | 0 mm | - | 0 W/m² | - |
| 1787999862 | 8.89° C | 96% | 1019.2 hPa | 0 mm | - | 0 W/m² | - |
* Rain latest hour (hover to see other rain measurements)
** Current wind speed in m/s (hover to see current wind gust speed)